sensor_id;sensor_type;location;lat;lon;timestamp;pressure;altitude;pressure_sealevel;temperature;humidity
19286;BME280;9776;50.798;6.430;2023-03-13T00:00:36;99106.91;;;12.19;62.40
19286;BME280;9776;50.798;6.430;2023-03-13T00:03:03;99094.88;;;12.16;62.48
19286;BME280;9776;50.798;6.430;2023-03-13T00:05:34;99099.19;;;12.17;62.64
19286;BME280;9776;50.798;6.430;2023-03-13T00:08:00;99087.16;;;12.15;62.79
19286;BME280;9776;50.798;6.430;2023-03-13T00:10:27;99075.09;;;12.12;63.45
19286;BME280;9776;50.798;6.430;2023-03-13T00:12:54;99074.69;;;12.09;63.54
19286;BME280;9776;50.798;6.430;2023-03-13T00:15:21;99056.47;;;11.99;64.23
19286;BME280;9776;50.798;6.430;2023-03-13T00:17:49;99057.59;;;11.90;64.91
19286;BME280;9776;50.798;6.430;2023-03-13T00:20:16;99047.78;;;11.84;65.10
19286;BME280;9776;50.798;6.430;2023-03-13T00:22:42;99047.34;;;11.80;65.36
19286;BME280;9776;50.798;6.430;2023-03-13T00:25:09;99040.59;;;11.78;65.82
19286;BME280;9776;50.798;6.430;2023-03-13T00:27:36;99034.91;;;11.74;65.88
19286;BME280;9776;50.798;6.430;2023-03-13T00:30:03;99027.13;;;11.73;65.92
19286;BME280;9776;50.798;6.430;2023-03-13T00:32:30;99015.75;;;11.72;65.98
19286;BME280;9776;50.798;6.430;2023-03-13T00:34:58;99015.75;;;11.72;66.32
19286;BME280;9776;50.798;6.430;2023-03-13T00:37:25;99020.53;;;11.69;66.15
19286;BME280;9776;50.798;6.430;2023-03-13T00:39:51;99009.00;;;11.70;66.17
19286;BME280;9776;50.798;6.430;2023-03-13T00:42:18;99017.91;;;11.69;66.52
19286;BME280;9776;50.798;6.430;2023-03-13T00:44:45;99006.38;;;11.70;66.35
19286;BME280;9776;50.798;6.430;2023-03-13T00:47:12;99007.00;;;11.72;66.40
19286;BME280;9776;50.798;6.430;2023-03-13T00:49:38;99008.03;;;11.71;66.71
19286;BME280;9776;50.798;6.430;2023-03-13T00:52:07;99001.91;;;11.70;66.82
19286;BME280;9776;50.798;6.430;2023-03-13T00:54:33;98985.41;;;11.68;66.85
19286;BME280;9776;50.798;6.430;2023-03-13T00:57:00;98995.31;;;11.66;66.88
19286;BME280;9776;50.798;6.430;2023-03-13T00:59:27;99000.81;;;11.65;66.77
19286;BME280;9776;50.798;6.430;2023-03-13T01:01:53;98988.22;;;11.67;67.03
19286;BME280;9776;50.798;6.430;2023-03-13T01:04:20;98990.84;;;11.67;67.01
19286;BME280;9776;50.798;6.430;2023-03-13T01:06:47;98984.75;;;11.66;66.82
19286;BME280;9776;50.798;6.430;2023-03-13T01:09:16;98988.03;;;11.68;66.86
19286;BME280;9776;50.798;6.430;2023-03-13T01:11:43;98986.06;;;11.70;66.87
19286;BME280;9776;50.798;6.430;2023-03-13T01:14:12;98975.72;;;11.75;67.01
19286;BME280;9776;50.798;6.430;2023-03-13T01:16:39;98967.41;;;11.78;67.13
19286;BME280;9776;50.798;6.430;2023-03-13T01:19:08;98973.31;;;11.80;67.05
19286;BME280;9776;50.798;6.430;2023-03-13T01:21:35;98974.13;;;11.81;66.91
19286;BME280;9776;50.798;6.430;2023-03-13T01:24:03;98967.47;;;11.85;67.11
19286;BME280;9776;50.798;6.430;2023-03-13T01:26:31;98950.41;;;11.87;67.18
19286;BME280;9776;50.798;6.430;2023-03-13T01:28:58;98943.09;;;11.89;67.14
19286;BME280;9776;50.798;6.430;2023-03-13T01:31:27;98935.59;;;11.93;67.07
19286;BME280;9776;50.798;6.430;2023-03-13T01:33:55;98939.69;;;11.95;67.28
19286;BME280;9776;50.798;6.430;2023-03-13T01:36:23;98938.50;;;11.98;67.17
19286;BME280;9776;50.798;6.430;2023-03-13T01:38:51;98928.34;;;12.02;67.34
19286;BME280;9776;50.798;6.430;2023-03-13T01:41:19;98929.78;;;12.04;67.49
19286;BME280;9776;50.798;6.430;2023-03-13T01:43:47;98928.59;;;12.07;67.52
19286;BME280;9776;50.798;6.430;2023-03-13T01:46:15;98919.66;;;12.08;67.46
19286;BME280;9776;50.798;6.430;2023-03-13T01:48:48;98915.41;;;12.13;67.60
19286;BME280;9776;50.798;6.430;2023-03-13T01:51:19;98912.16;;;12.11;67.96
19286;BME280;9776;50.798;6.430;2023-03-13T01:53:50;98910.13;;;12.13;68.15
19286;BME280;9776;50.798;6.430;2023-03-13T01:56:22;98891.00;;;12.11;68.10
19286;BME280;9776;50.798;6.430;2023-03-13T01:58:54;98895.47;;;12.11;68.58
19286;BME280;9776;50.798;6.430;2023-03-13T02:01:23;98871.22;;;12.07;68.92
19286;BME280;9776;50.798;6.430;2023-03-13T02:03:51;98867.34;;;12.03;69.09
19286;BME280;9776;50.798;6.430;2023-03-13T02:06:18;98866.09;;;11.99;69.42
19286;BME280;9776;50.798;6.430;2023-03-13T02:08:49;98849.78;;;11.95;69.82
19286;BME280;9776;50.798;6.430;2023-03-13T02:11:26;98851.00;;;11.93;69.96
19286;BME280;9776;50.798;6.430;2023-03-13T02:13:56;98847.75;;;11.91;70.45
19286;BME280;9776;50.798;6.430;2023-03-13T02:16:24;98830.25;;;11.90;70.54
19286;BME280;9776;50.798;6.430;2023-03-13T02:18:51;98832.88;;;11.90;70.74
19286;BME280;9776;50.798;6.430;2023-03-13T02:21:28;98837.16;;;11.91;70.96
19286;BME280;9776;50.798;6.430;2023-03-13T02:24:02;98832.88;;;11.90;70.95
19286;BME280;9776;50.798;6.430;2023-03-13T02:26:33;98821.94;;;11.93;71.11
19286;BME280;9776;50.798;6.430;2023-03-13T02:29:00;98820.09;;;11.93;71.45
19286;BME280;9776;50.798;6.430;2023-03-13T02:31:26;98819.88;;;11.95;71.54
19286;BME280;9776;50.798;6.430;2023-03-13T02:33:57;98827.66;;;11.97;71.90
19286;BME280;9776;50.798;6.430;2023-03-13T02:36:27;98820.53;;;11.97;71.75
19286;BME280;9776;50.798;6.430;2023-03-13T02:38:59;98818.28;;;12.01;71.86
19286;BME280;9776;50.798;6.430;2023-03-13T02:41:28;98818.13;;;12.02;71.86
19286;BME280;9776;50.798;6.430;2023-03-13T02:43:58;98807.53;;;12.02;71.90
19286;BME280;9776;50.798;6.430;2023-03-13T02:46:24;98799.41;;;12.04;72.24
19286;BME280;9776;50.798;6.430;2023-03-13T02:48:53;98790.28;;;12.06;72.25
19286;BME280;9776;50.798;6.430;2023-03-13T02:51:24;98788.03;;;12.10;72.46
19286;BME280;9776;50.798;6.430;2023-03-13T02:53:54;98789.28;;;12.14;72.42
19286;BME280;9776;50.798;6.430;2023-03-13T02:56:25;98781.13;;;12.15;72.50
19286;BME280;9776;50.798;6.430;2023-03-13T02:58:52;98758.38;;;12.14;72.56
19286;BME280;9776;50.798;6.430;2023-03-13T03:01:20;98753.31;;;12.19;72.37
19286;BME280;9776;50.798;6.430;2023-03-13T03:03:47;98746.63;;;12.23;72.36
19286;BME280;9776;50.798;6.430;2023-03-13T03:06:14;98739.47;;;12.24;72.42
19286;BME280;9776;50.798;6.430;2023-03-13T03:08:40;98747.00;;;12.27;72.63
19286;BME280;9776;50.798;6.430;2023-03-13T03:11:08;98756.41;;;12.29;72.53
19286;BME280;9776;50.798;6.430;2023-03-13T03:13:35;98752.28;;;12.27;72.71
19286;BME280;9776;50.798;6.430;2023-03-13T03:16:05;98756.81;;;12.26;72.57
19286;BME280;9776;50.798;6.430;2023-03-13T03:18:33;98762.88;;;12.27;73.00
19286;BME280;9776;50.798;6.430;2023-03-13T03:21:00;98765.53;;;12.27;73.28
19286;BME280;9776;50.798;6.430;2023-03-13T03:23:30;98761.25;;;12.26;72.96
19286;BME280;9776;50.798;6.430;2023-03-13T03:25:57;98758.81;;;12.24;72.95
19286;BME280;9776;50.798;6.430;2023-03-13T03:28:24;98769.38;;;12.24;73.41
19286;BME280;9776;50.798;6.430;2023-03-13T03:30:51;98756.81;;;12.26;73.22
19286;BME280;9776;50.798;6.430;2023-03-13T03:33:19;98757.84;;;12.32;73.29
19286;BME280;9776;50.798;6.430;2023-03-13T03:35:48;98753.56;;;12.37;73.09
19286;BME280;9776;50.798;6.430;2023-03-13T03:38:15;98747.88;;;12.40;72.89
19286;BME280;9776;50.798;6.430;2023-03-13T03:40:42;98741.97;;;12.38;73.18
19286;BME280;9776;50.798;6.430;2023-03-13T03:43:09;98745.03;;;12.42;73.05
19286;BME280;9776;50.798;6.430;2023-03-13T03:45:36;98748.28;;;12.44;73.37
19286;BME280;9776;50.798;6.430;2023-03-13T03:48:03;98744.44;;;12.46;73.15
19286;BME280;9776;50.798;6.430;2023-03-13T03:50:45;98725.91;;;12.46;73.46
19286;BME280;9776;50.798;6.430;2023-03-13T03:53:13;98712.50;;;12.55;73.47
19286;BME280;9776;50.798;6.430;2023-03-13T03:55:39;98711.06;;;12.59;73.18
19286;BME280;9776;50.798;6.430;2023-03-13T03:58:06;98720.44;;;12.61;73.39
19286;BME280;9776;50.798;6.430;2023-03-13T04:00:33;98711.28;;;12.64;73.50
19286;BME280;9776;50.798;6.430;2023-03-13T04:02:59;98727.56;;;12.67;73.46
19286;BME280;9776;50.798;6.430;2023-03-13T04:05:26;98722.09;;;12.69;73.18
19286;BME280;9776;50.798;6.430;2023-03-13T04:07:53;98712.72;;;12.73;73.40
19286;BME280;9776;50.798;6.430;2023-03-13T04:10:21;98715.59;;;12.78;73.17
19286;BME280;9776;50.798;6.430;2023-03-13T04:12:48;98707.00;;;12.76;73.33
19286;BME280;9776;50.798;6.430;2023-03-13T04:15:14;98707.00;;;12.76;73.49
19286;BME280;9776;50.798;6.430;2023-03-13T04:17:41;98716.41;;;12.78;73.64
19286;BME280;9776;50.798;6.430;2023-03-13T04:20:09;98716.59;;;12.83;73.57
19286;BME280;9776;50.798;6.430;2023-03-13T04:22:38;98719.84;;;12.85;73.60
19286;BME280;9776;50.798;6.430;2023-03-13T04:25:05;98714.75;;;12.90;73.32
19286;BME280;9776;50.798;6.430;2023-03-13T04:27:34;98721.06;;;12.96;73.31
19286;BME280;9776;50.798;6.430;2023-03-13T04:30:01;98735.53;;;13.00;73.42
19286;BME280;9776;50.798;6.430;2023-03-13T04:32:29;98721.09;;;13.02;73.25
19286;BME280;9776;50.798;6.430;2023-03-13T04:34:55;98728.44;;;13.07;73.38
19286;BME280;9776;50.798;6.430;2023-03-13T04:37:22;98711.34;;;13.10;73.41
19286;BME280;9776;50.798;6.430;2023-03-13T04:39:48;98704.81;;;13.12;73.34
19286;BME280;9776;50.798;6.430;2023-03-13T04:42:16;98697.47;;;13.14;73.36
19286;BME280;9776;50.798;6.430;2023-03-13T04:44:44;98692.59;;;13.18;73.40
19286;BME280;9776;50.798;6.430;2023-03-13T04:47:10;98695.00;;;13.19;73.38
19286;BME280;9776;50.798;6.430;2023-03-13T04:49:37;98693.00;;;13.21;73.28
19286;BME280;9776;50.798;6.430;2023-03-13T04:52:04;98686.66;;;13.22;73.13
19286;BME280;9776;50.798;6.430;2023-03-13T04:54:31;98690.94;;;13.23;73.23
19286;BME280;9776;50.798;6.430;2023-03-13T04:56:57;98683.59;;;13.25;73.22
19286;BME280;9776;50.798;6.430;2023-03-13T04:59:24;98703.56;;;13.28;73.23
19286;BME280;9776;50.798;6.430;2023-03-13T05:01:52;98686.47;;;13.30;73.08
19286;BME280;9776;50.798;6.430;2023-03-13T05:04:19;98674.22;;;13.29;73.25
19286;BME280;9776;50.798;6.430;2023-03-13T05:06:45;98676.66;;;13.31;73.14
19286;BME280;9776;50.798;6.430;2023-03-13T05:09:12;98678.06;;;13.33;73.30
19286;BME280;9776;50.798;6.430;2023-03-13T05:11:39;98682.38;;;13.34;73.17
19286;BME280;9776;50.798;6.430;2023-03-13T05:14:06;98668.94;;;13.36;73.25
19286;BME280;9776;50.798;6.430;2023-03-13T05:16:35;98668.28;;;13.34;73.03
19286;BME280;9776;50.798;6.430;2023-03-13T05:19:03;98665.66;;;13.34;73.01
19286;BME280;9776;50.798;6.430;2023-03-13T05:21:30;98666.69;;;13.33;73.27
19286;BME280;9776;50.798;6.430;2023-03-13T05:23:57;98658.50;;;13.34;73.26
19286;BME280;9776;50.798;6.430;2023-03-13T05:26:23;98674.22;;;13.36;73.03
19286;BME280;9776;50.798;6.430;2023-03-13T05:28:50;98668.69;;;13.37;73.03
19286;BME280;9776;50.798;6.430;2023-03-13T05:31:17;98662.59;;;13.37;73.02
19286;BME280;9776;50.798;6.430;2023-03-13T05:33:44;98639.38;;;13.32;73.28
19286;BME280;9776;50.798;6.430;2023-03-13T05:36:12;98631.25;;;13.27;73.14
19286;BME280;9776;50.798;6.430;2023-03-13T05:38:38;98625.31;;;13.25;73.59
19286;BME280;9776;50.798;6.430;2023-03-13T05:41:05;98629.78;;;13.25;73.50
19286;BME280;9776;50.798;6.430;2023-03-13T05:43:32;98628.38;;;13.22;73.21
19286;BME280;9776;50.798;6.430;2023-03-13T05:45:59;98631.66;;;13.24;73.23
19286;BME280;9776;50.798;6.430;2023-03-13T05:48:25;98623.69;;;13.24;73.09
19286;BME280;9776;50.798;6.430;2023-03-13T05:50:52;98645.31;;;13.21;73.20
19286;BME280;9776;50.798;6.430;2023-03-13T05:53:20;98623.06;;;13.22;73.36
19286;BME280;9776;50.798;6.430;2023-03-13T05:55:47;98627.38;;;13.23;73.15
19286;BME280;9776;50.798;6.430;2023-03-13T05:58:14;98648.56;;;13.23;73.11
19286;BME280;9776;50.798;6.430;2023-03-13T06:00:40;98662.41;;;13.25;72.80
19286;BME280;9776;50.798;6.430;2023-03-13T06:03:08;98679.53;;;13.29;72.90
19286;BME280;9776;50.798;6.430;2023-03-13T06:05:35;98680.31;;;13.36;72.73
19286;BME280;9776;50.798;6.430;2023-03-13T06:08:02;98682.34;;;13.41;72.35
19286;BME280;9776;50.798;6.430;2023-03-13T06:10:30;98676.41;;;13.45;72.38
19286;BME280;9776;50.798;6.430;2023-03-13T06:12:57;98666.44;;;13.47;72.38
19286;BME280;9776;50.798;6.430;2023-03-13T06:15:24;98673.75;;;13.52;72.41
19286;BME280;9776;50.798;6.430;2023-03-13T06:17:51;98675.78;;;13.56;72.09
19286;BME280;9776;50.798;6.430;2023-03-13T06:20:18;98669.88;;;13.61;72.14
19286;BME280;9776;50.798;6.430;2023-03-13T06:22:45;98683.53;;;13.64;71.90
19286;BME280;9776;50.798;6.430;2023-03-13T06:25:11;98696.38;;;13.68;71.87
19286;BME280;9776;50.798;6.430;2023-03-13T06:27:41;98677.38;;;13.71;71.36
19286;BME280;9776;50.798;6.430;2023-03-13T06:30:09;98681.44;;;13.73;71.57
19286;BME280;9776;50.798;6.430;2023-03-13T06:32:36;98693.66;;;13.74;71.08
19286;BME280;9776;50.798;6.430;2023-03-13T06:35:03;98681.41;;;13.80;71.11
19286;BME280;9776;50.798;6.430;2023-03-13T06:37:31;98690.00;;;13.82;70.45
19286;BME280;9776;50.798;6.430;2023-03-13T06:39:58;98673.66;;;13.85;70.43
19286;BME280;9776;50.798;6.430;2023-03-13T06:42:24;98677.72;;;13.87;70.10
19286;BME280;9776;50.798;6.430;2023-03-13T06:44:52;98688.94;;;13.89;70.07
19286;BME280;9776;50.798;6.430;2023-03-13T06:47:19;98687.50;;;13.93;69.87
19286;BME280;9776;50.798;6.430;2023-03-13T06:49:46;98670.34;;;13.96;69.50
19286;BME280;9776;50.798;6.430;2023-03-13T06:52:13;98666.44;;;13.98;69.03
19286;BME280;9776;50.798;6.430;2023-03-13T06:54:40;98685.41;;;14.02;68.70
19286;BME280;9776;50.798;6.430;2023-03-13T06:57:06;98670.09;;;14.04;68.42
19286;BME280;9776;50.798;6.430;2023-03-13T06:59:33;98676.22;;;14.04;68.30
19286;BME280;9776;50.798;6.430;2023-03-13T07:02:01;98686.59;;;14.06;68.53
19286;BME280;9776;50.798;6.430;2023-03-13T07:04:28;98686.81;;;14.04;68.33
19286;BME280;9776;50.798;6.430;2023-03-13T07:06:55;98683.34;;;14.04;68.34
19286;BME280;9776;50.798;6.430;2023-03-13T07:09:22;98690.09;;;14.00;68.64
19286;BME280;9776;50.798;6.430;2023-03-13T07:11:49;98683.19;;;13.99;68.31
19286;BME280;9776;50.798;6.430;2023-03-13T07:14:16;98661.75;;;14.00;68.75
19286;BME280;9776;50.798;6.430;2023-03-13T07:16:43;98677.47;;;14.02;68.42
19286;BME280;9776;50.798;6.430;2023-03-13T07:19:12;98667.44;;;14.04;68.08
19286;BME280;9776;50.798;6.430;2023-03-13T07:21:39;98660.69;;;14.08;68.05
19286;BME280;9776;50.798;6.430;2023-03-13T07:24:06;98659.84;;;14.14;67.61
19286;BME280;9776;50.798;6.430;2023-03-13T07:26:33;98634.94;;;14.15;67.57
19286;BME280;9776;50.798;6.430;2023-03-13T07:29:00;98647.34;;;14.21;67.19
19286;BME280;9776;50.798;6.430;2023-03-13T07:31:26;98630.41;;;14.22;67.24
19286;BME280;9776;50.798;6.430;2023-03-13T07:33:54;98640.75;;;14.30;66.45
19286;BME280;9776;50.798;6.430;2023-03-13T07:36:22;98648.88;;;14.42;66.07
19286;BME280;9776;50.798;6.430;2023-03-13T07:38:50;98639.41;;;14.52;65.76
19286;BME280;9776;50.798;6.430;2023-03-13T07:41:18;98643.59;;;14.66;65.42
19286;BME280;9776;50.798;6.430;2023-03-13T07:43:45;98622.69;;;14.76;64.96
19286;BME280;9776;50.798;6.430;2023-03-13T07:46:13;98643.88;;;14.83;64.67
19286;BME280;9776;50.798;6.430;2023-03-13T07:48:41;98633.59;;;14.87;64.49
19286;BME280;9776;50.798;6.430;2023-03-13T07:51:10;98644.84;;;14.89;64.72
19286;BME280;9776;50.798;6.430;2023-03-13T07:53:39;98639.97;;;14.86;64.71
19286;BME280;9776;50.798;6.430;2023-03-13T07:56:07;98642.69;;;14.79;64.54
19286;BME280;9776;50.798;6.430;2023-03-13T07:58:37;98643.94;;;14.76;64.59
19286;BME280;9776;50.798;6.430;2023-03-13T08:01:07;98633.50;;;14.75;64.37
19286;BME280;9776;50.798;6.430;2023-03-13T08:03:35;98641.69;;;14.73;64.60
19286;BME280;9776;50.798;6.430;2023-03-13T08:06:04;98642.13;;;14.70;64.66
19286;BME280;9776;50.798;6.430;2023-03-13T08:08:31;98638.22;;;14.73;64.57
19286;BME280;9776;50.798;6.430;2023-03-13T08:11:00;98645.75;;;14.76;64.56
19286;BME280;9776;50.798;6.430;2023-03-13T08:13:27;98635.00;;;14.89;64.26
19286;BME280;9776;50.798;6.430;2023-03-13T08:16:00;98645.31;;;15.04;64.28
19286;BME280;9776;50.798;6.430;2023-03-13T08:18:27;98644.44;;;15.10;64.11
19286;BME280;9776;50.798;6.430;2023-03-13T08:20:54;98644.44;;;15.10;64.55
19286;BME280;9776;50.798;6.430;2023-03-13T08:23:21;98649.47;;;15.18;64.59
19286;BME280;9776;50.798;6.430;2023-03-13T08:25:47;98640.69;;;15.17;65.05
19286;BME280;9776;50.798;6.430;2023-03-13T08:28:16;98651.91;;;15.19;65.23
19286;BME280;9776;50.798;6.430;2023-03-13T08:30:42;98655.00;;;15.16;65.50
19286;BME280;9776;50.798;6.430;2023-03-13T08:33:09;98659.41;;;15.04;66.10
19286;BME280;9776;50.798;6.430;2023-03-13T08:35:36;98646.78;;;15.00;66.43
19286;BME280;9776;50.798;6.430;2023-03-13T08:38:03;98634.47;;;15.05;66.17
19286;BME280;9776;50.798;6.430;2023-03-13T08:40:31;98645.31;;;15.04;66.35
19286;BME280;9776;50.798;6.430;2023-03-13T08:42:57;98647.66;;;14.94;66.91
19286;BME280;9776;50.798;6.430;2023-03-13T08:45:26;98642.97;;;14.89;67.06
19286;BME280;9776;50.798;6.430;2023-03-13T08:47:52;98637.91;;;14.88;67.32
19286;BME280;9776;50.798;6.430;2023-03-13T08:50:19;98639.97;;;14.86;67.21
19286;BME280;9776;50.798;6.430;2023-03-13T08:52:46;98628.47;;;14.92;67.09
19286;BME280;9776;50.798;6.430;2023-03-13T08:55:12;98635.56;;;14.98;66.90
19286;BME280;9776;50.798;6.430;2023-03-13T08:57:39;98631.44;;;15.02;67.00
19286;BME280;9776;50.798;6.430;2023-03-13T09:00:07;98635.03;;;15.32;66.46
19286;BME280;9776;50.798;6.430;2023-03-13T09:02:36;98623.00;;;15.48;65.95
19286;BME280;9776;50.798;6.430;2023-03-13T09:05:03;98629.34;;;15.65;65.87
19286;BME280;9776;50.798;6.430;2023-03-13T09:07:30;98629.41;;;15.76;65.53
19286;BME280;9776;50.798;6.430;2023-03-13T09:09:57;98614.59;;;15.69;65.77
19286;BME280;9776;50.798;6.430;2023-03-13T09:12:24;98612.59;;;15.94;65.61
19286;BME280;9776;50.798;6.430;2023-03-13T09:14:51;98627.47;;;17.08;63.29
19286;BME280;9776;50.798;6.430;2023-03-13T09:17:18;98610.53;;;18.33;59.83
19286;BME280;9776;50.798;6.430;2023-03-13T09:19:46;98617.78;;;19.16;57.68
19286;BME280;9776;50.798;6.430;2023-03-13T09:22:13;98610.41;;;19.06;57.87
19286;BME280;9776;50.798;6.430;2023-03-13T09:24:40;98620.81;;;18.69;58.95
19286;BME280;9776;50.798;6.430;2023-03-13T09:27:09;98601.25;;;18.86;58.67
19286;BME280;9776;50.798;6.430;2023-03-13T09:29:36;98608.88;;;20.19;55.65
19286;BME280;9776;50.798;6.430;2023-03-13T09:32:06;98597.19;;;20.03;55.33
19286;BME280;9776;50.798;6.430;2023-03-13T09:34:32;98603.00;;;20.80;53.61
19286;BME280;9776;50.798;6.430;2023-03-13T09:37:01;98591.56;;;21.99;50.66
19286;BME280;9776;50.798;6.430;2023-03-13T09:39:27;98570.66;;;22.46;49.15
19286;BME280;9776;50.798;6.430;2023-03-13T09:42:01;98570.03;;;23.25;47.39
19286;BME280;9776;50.798;6.430;2023-03-13T09:44:34;98576.63;;;23.68;46.37
19286;BME280;9776;50.798;6.430;2023-03-13T09:47:08;98571.69;;;24.34;45.07
19286;BME280;9776;50.798;6.430;2023-03-13T09:49:38;98551.56;;;25.36;43.05
19286;BME280;9776;50.798;6.430;2023-03-13T09:52:14;98541.09;;;26.15;40.93
19286;BME280;9776;50.798;6.430;2023-03-13T09:54:46;98560.13;;;25.86;40.93
19286;BME280;9776;50.798;6.430;2023-03-13T09:57:19;98550.66;;;24.94;42.57
19286;BME280;9776;50.798;6.430;2023-03-13T09:59:51;98546.59;;;23.46;45.26
19286;BME280;9776;50.798;6.430;2023-03-13T10:02:30;98542.28;;;23.30;45.38
19286;BME280;9776;50.798;6.430;2023-03-13T10:05:04;98544.59;;;23.61;44.76
19286;BME280;9776;50.798;6.430;2023-03-13T10:07:34;98535.81;;;23.36;45.16
19286;BME280;9776;50.798;6.430;2023-03-13T10:10:02;98531.03;;;23.82;44.22
19286;BME280;9776;50.798;6.430;2023-03-13T10:12:35;98521.94;;;25.08;41.77
19286;BME280;9776;50.798;6.430;2023-03-13T10:15:22;98531.44;;;25.71;40.46
19286;BME280;9776;50.798;6.430;2023-03-13T10:17:53;98519.13;;;26.35;39.63
19286;BME280;9776;50.798;6.430;2023-03-13T10:20:22;98519.09;;;27.27;38.27
19286;BME280;9776;50.798;6.430;2023-03-13T10:22:55;98533.47;;;27.27;37.85
19286;BME280;9776;50.798;6.430;2023-03-13T10:25:27;98503.47;;;26.64;38.24
19286;BME280;9776;50.798;6.430;2023-03-13T10:27:56;98502.84;;;27.54;37.12
19286;BME280;9776;50.798;6.430;2023-03-13T10:30:25;98492.47;;;28.05;35.97
19286;BME280;9776;50.798;6.430;2023-03-13T10:32:53;98508.44;;;28.29;35.43
19286;BME280;9776;50.798;6.430;2023-03-13T10:35:30;98483.00;;;28.17;35.20
19286;BME280;9776;50.798;6.430;2023-03-13T10:38:07;98486.81;;;28.15;34.81
19286;BME280;9776;50.798;6.430;2023-03-13T10:40:36;98491.97;;;28.26;34.57
19286;BME280;9776;50.798;6.430;2023-03-13T10:43:05;98470.56;;;28.46;34.40
19286;BME280;9776;50.798;6.430;2023-03-13T10:45:34;98464.38;;;28.77;33.95
19286;BME280;9776;50.798;6.430;2023-03-13T10:48:03;98484.91;;;28.16;34.55
19286;BME280;9776;50.798;6.430;2023-03-13T10:50:41;98458.81;;;28.06;34.01
19286;BME280;9776;50.798;6.430;2023-03-13T10:53:24;98461.13;;;28.13;33.84
19286;BME280;9776;50.798;6.430;2023-03-13T10:55:54;98450.66;;;27.48;34.62
19286;BME280;9776;50.798;6.430;2023-03-13T10:58:26;98457.09;;;26.84;35.41
19286;BME280;9776;50.798;6.430;2023-03-13T11:01:09;98426.59;;;26.65;35.59
19286;BME280;9776;50.798;6.430;2023-03-13T11:03:41;98452.91;;;26.92;35.31
19286;BME280;9776;50.798;6.430;2023-03-13T11:06:22;98438.81;;;27.31;34.67
19286;BME280;9776;50.798;6.430;2023-03-13T11:08:58;98433.44;;;27.44;34.11
19286;BME280;9776;50.798;6.430;2023-03-13T11:11:25;98429.78;;;28.07;33.15
19286;BME280;9776;50.798;6.430;2023-03-13T11:14:06;98426.09;;;28.25;32.86
19286;BME280;9776;50.798;6.430;2023-03-13T11:16:38;98437.09;;;28.90;32.23
19286;BME280;9776;50.798;6.430;2023-03-13T11:19:23;98413.75;;;29.29;31.22
19286;BME280;9776;50.798;6.430;2023-03-13T11:22:02;98426.19;;;28.73;32.18
19286;BME280;9776;50.798;6.430;2023-03-13T11:24:39;98406.53;;;29.41;31.19
19286;BME280;9776;50.798;6.430;2023-03-13T11:27:14;98395.53;;;29.46;31.11
19286;BME280;9776;50.798;6.430;2023-03-13T11:29:53;98392.31;;;29.44;31.15
19286;BME280;9776;50.798;6.430;2023-03-13T11:32:30;98384.03;;;29.49;30.71
19286;BME280;9776;50.798;6.430;2023-03-13T11:35:06;98373.34;;;28.88;31.42
19286;BME280;9776;50.798;6.430;2023-03-13T11:37:38;98384.09;;;28.53;31.66
19286;BME280;9776;50.798;6.430;2023-03-13T11:40:15;98375.69;;;28.72;31.21
19286;BME280;9776;50.798;6.430;2023-03-13T11:43:11;98381.41;;;28.62;31.62
19286;BME280;9776;50.798;6.430;2023-03-13T11:45:57;98385.59;;;28.37;31.83
19286;BME280;9776;50.798;6.430;2023-03-13T11:48:48;98376.53;;;27.89;32.69
19286;BME280;9776;50.798;6.430;2023-03-13T11:51:23;98365.13;;;27.78;33.15
19286;BME280;9776;50.798;6.430;2023-03-13T11:54:10;98375.72;;;27.44;33.30
19286;BME280;9776;50.798;6.430;2023-03-13T11:56:46;98367.22;;;27.81;32.48
19286;BME280;9776;50.798;6.430;2023-03-13T11:59:28;98359.03;;;28.26;32.11
19286;BME280;9776;50.798;6.430;2023-03-13T12:01:59;98340.50;;;28.58;31.51
19286;BME280;9776;50.798;6.430;2023-03-13T12:04:34;98348.59;;;28.98;30.88
19286;BME280;9776;50.798;6.430;2023-03-13T12:07:04;98330.06;;;28.83;31.04
19286;BME280;9776;50.798;6.430;2023-03-13T12:09:36;98351.31;;;28.98;30.61
19286;BME280;9776;50.798;6.430;2023-03-13T12:12:16;98344.16;;;28.45;31.03
19286;BME280;9776;50.798;6.430;2023-03-13T12:14:49;98338.81;;;28.71;30.53
19286;BME280;9776;50.798;6.430;2023-03-13T12:17:27;98314.91;;;29.07;29.92
19286;BME280;9776;50.798;6.430;2023-03-13T12:20:00;98309.31;;;29.47;29.51
19286;BME280;9776;50.798;6.430;2023-03-13T12:22:35;98318.59;;;29.63;29.42
19286;BME280;9776;50.798;6.430;2023-03-13T12:25:10;98289.09;;;29.99;28.96
19286;BME280;9776;50.798;6.430;2023-03-13T12:27:41;98315.34;;;30.50;28.32
19286;BME280;9776;50.798;6.430;2023-03-13T12:30:18;98305.28;;;29.96;28.84
19286;BME280;9776;50.798;6.430;2023-03-13T12:32:55;98298.91;;;29.74;29.06
19286;BME280;9776;50.798;6.430;2023-03-13T12:35:26;98319.75;;;29.27;29.63
19286;BME280;9776;50.798;6.430;2023-03-13T12:37:58;98281.84;;;29.14;29.71
19286;BME280;9776;50.798;6.430;2023-03-13T12:40:31;98288.84;;;28.81;30.29
19286;BME280;9776;50.798;6.430;2023-03-13T12:43:03;98281.56;;;28.50;30.49
19286;BME280;9776;50.798;6.430;2023-03-13T12:45:32;98285.22;;;28.46;30.38
19286;BME280;9776;50.798;6.430;2023-03-13T12:48:22;98306.66;;;28.08;30.88
19286;BME280;9776;50.798;6.430;2023-03-13T12:51:43;98287.78;;;28.42;30.43
19286;BME280;9776;50.798;6.430;2023-03-13T12:54:34;98274.00;;;29.30;29.33
19286;BME280;9776;50.798;6.430;2023-03-13T12:57:17;98270.81;;;28.93;29.88
19286;BME280;9776;50.798;6.430;2023-03-13T12:59:53;98265.88;;;29.30;29.56
19286;BME280;9776;50.798;6.430;2023-03-13T13:02:25;98265.50;;;29.65;29.23
19286;BME280;9776;50.798;6.430;2023-03-13T13:04:54;98265.63;;;29.77;29.18
19286;BME280;9776;50.798;6.430;2023-03-13T13:07:24;98262.19;;;30.06;28.97
19286;BME280;9776;50.798;6.430;2023-03-13T13:10:02;98266.41;;;29.95;28.52
19286;BME280;9776;50.798;6.430;2023-03-13T13:12:30;98269.19;;;27.88;31.70
19286;BME280;9776;50.798;6.430;2023-03-13T13:15:10;98264.19;;;26.16;33.74
19286;BME280;9776;50.798;6.430;2023-03-13T13:18:12;98270.84;;;24.28;36.93
19286;BME280;9776;50.798;6.430;2023-03-13T13:20:42;98271.00;;;23.60;38.51
19286;BME280;9776;50.798;6.430;2023-03-13T13:23:34;98254.91;;;23.79;38.04